Have a Safe July 4th! 

Flight Track Log - Related Links

Times and Time Zones

All times are in EDT time to prevent confusion due to time zone crossing. See the AAL1329 flight status page for this flight to view local times or setup timezone preferences in your user account.

Time Position Orientation Groundspeed Altitude Reporting Facility
EDT Latitude Longitude Course Direction KTS MPH feet Rate Location/Type
Fri 05:32:50 PM 35.8644 -78.8164 253° West 176 203 1,500  Level Washington Center
Fri 05:33:08 PM 35.8536 -78.8286 234° Southwest 178 205 2,000 1,953 Climbing Washington Center
Fri 05:34:16 PM 35.8306 -78.9072 250° West 261 300 4,300 2,769 Climbing Washington Center
Fri 05:35:44 PM 35.8544 -79.0261 284° West 248 285 9,200 2,658 Climbing Washington Center
Fri 05:36:00 PM 35.8326 -79.3064 262° West  Level FlightAware Approximate
Fri 05:36:45 PM 35.8500 -79.1003 266° West 242 278 10,900  Level Washington Center
Fri 05:37:00 PM 35.8181 -79.4369 262° West  Level FlightAware Approximate
Fri 05:37:45 PM 35.8406 -79.2072 264° West 288 331 12,300  Level Washington Center
Fri 05:38:00 PM 35.8083 -79.5668 253° West  Level FlightAware Approximate
Fri 05:38:46 PM 35.8347 -79.3300 267° West 329 379 15,100  Level Washington Center
Fri 05:40:39 PM 35.8119 -79.5678 263° West 367 422 19,700 2,254 Climbing Atlanta Center
Fri 05:41:39 PM 35.8097 -79.6781 269° West 372 428 21,600 1,650 Climbing Atlanta Center
Fri 05:42:39 PM 35.8372 -79.8097 284° West 378 435 23,000 1,650 Climbing Atlanta Center
Fri 05:43:39 PM 35.8675 -79.9644 284° West 412 474 24,900 1,700 Climbing Atlanta Center
Fri 05:44:39 PM 35.8931 -80.1017 283° West 423 487 26,400 1,500 Climbing Atlanta Center
Fri 05:45:39 PM 35.9225 -80.2436 284° West 428 493 27,900 1,450 Climbing Atlanta Center
Fri 05:46:39 PM 35.9497 -80.3886 283° West 428 493 29,300 1,450 Climbing Atlanta Center
Fri 05:47:39 PM 35.9722 -80.5186 282° West 428 493 30,800 1,600 Climbing Atlanta Center
Fri 05:48:39 PM 36.0033 -80.6608 285° West 428 493 32,500 1,300 Climbing Atlanta Center
Fri 05:50:39 PM 36.0547 -80.9414 283° West 428 493 34,700 867 Climbing Atlanta Center
Fri 05:51:39 PM 36.0811 -81.0817 283° West 428 493 35,100 650 Climbing Atlanta Center
Fri 05:52:39 PM 36.1072 -81.2219 283° West 428 493 36,000 450 Climbing Atlanta Center
Fri 05:53:39 PM 36.1250 -81.3575 279° West 423 487 36,000  Level Atlanta Center
Fri 05:54:39 PM 36.1403 -81.4933 278° West 416 479 36,000 700 Level Atlanta Center
Fri 05:55:39 PM 36.1533 -81.6267 277° West 404 465 37,400 1,000 Climbing Atlanta Center
Fri 05:56:39 PM 36.1683 -81.7575 278° West 394 453 38,000 300 Climbing Atlanta Center
Fri 05:57:39 PM 36.1833 -81.8856 278° West 388 447 38,000  Level Atlanta Center
Fri 05:58:39 PM 36.1958 -82.0139 277° West 388 447 38,000  Level Atlanta Center
Fri 05:59:39 PM 36.2108 -82.1575 277° West 388 447 38,000  Level Atlanta Center
Fri 06:00:39 PM 36.2208 -82.2808 276° West 383 441 38,000  Level Atlanta Center
Fri 06:01:39 PM 36.2331 -82.4094 277° West 377 434 38,000  Level Atlanta Center
Fri 06:02:39 PM 36.2450 -82.5353 277° West 377 434 38,000  Level Atlanta Center
Fri 06:03:39 PM 36.2592 -82.6611 278° West 372 428 38,000  Level Atlanta Center
Fri 06:04:39 PM 36.2708 -82.7844 277° West 372 428 38,000  Level Atlanta Center
Fri 06:05:39 PM 36.2825 -82.8953 277° West 365 420 38,000  Level Atlanta Center
Fri 06:06:39 PM 36.2939 -83.0186 277° West 365 420 38,000  Level Atlanta Center
Fri 06:07:39 PM 36.3053 -83.1422 277° West 365 420 38,000  Level Atlanta Center
Fri 06:08:39 PM 36.3167 -83.2631 277° West 365 420 38,000  Level Atlanta Center
Fri 06:09:39 PM 36.3297 -83.3867 278° West 365 420 38,000  Level Atlanta Center
Fri 06:10:39 PM 36.3386 -83.5078 275° West 365 420 38,000  Level Atlanta Center
Fri 06:11:53 PM 36.3558 -83.6497 279° West 358 412 38,000  Level Indianapolis Center
Fri 06:12:55 PM 36.3664 -83.7722 276° West 358 412 38,000  Level Indianapolis Center
Fri 06:19:04 PM 36.4353 -84.5616 276° West 368 423 38,000  Level FlightAware ADS-B
Fri 06:20:03 PM 36.4402 -84.6201 276° West 370 426 38,000  Level FlightAware ADS-B
Fri 06:20:46 PM 36.4471 -84.7037 276° West 372 428 38,000  Level FlightAware ADS-B
Fri 06:22:15 PM 36.4689 -84.9707 276° West 378 435 38,000  Level FlightAware ADS-B (KMDQ)
Fri 06:22:59 PM 36.4761 -85.0622 276° West 381 438 38,000  Level FlightAware ADS-B (KMDQ)
Fri 06:23:49 PM 36.4841 -85.1632 276° West 382 440 38,000  Level FlightAware ADS-B
Fri 06:24:20 PM 36.4905 -85.2466 276° West 380 437 38,000  Level FlightAware ADS-B (KMDQ)
Fri 06:25:15 PM 36.4911 -85.2540 276° West 380 437 38,000  Level FlightAware ADS-B (KIXA)
Fri 06:26:09 PM 36.5090 -85.4874 276° West 378 435 38,000  Level FlightAware ADS-B (KMDQ)
Fri 06:26:41 PM 36.5111 -85.5151 276° West 378 435 38,000  Level FlightAware ADS-B (KMDQ)
Fri 06:28:03 PM 36.5267 -85.7243 275° West 373 429 38,000  Level FlightAware ADS-B (KMDQ)
Fri 06:28:44 PM 36.5316 -85.7916 275° West 373 429 38,000  Level FlightAware ADS-B
Fri 06:29:21 PM 36.5267 -85.7243 275° West 373 429 38,000  Level FlightAware ADS-B (KMDQ)
Fri 06:31:37 PM 36.5598 -86.1857 275° West 369 425 38,000  Level FlightAware ADS-B (KMDQ)
Fri 06:32:18 PM 36.5648 -86.2582 275° West 370 426 38,000  Level FlightAware ADS-B
Fri 06:33:16 PM 36.5743 -86.3964 275° West 372 428 38,000  Level FlightAware ADS-B (KMDQ)
Fri 06:34:06 PM 36.5812 -86.4985 275° West 372 428 38,000  Level FlightAware ADS-B (KMDQ)
Fri 06:34:48 PM 36.5869 -86.5844 275° West 373 429 38,000  Level FlightAware ADS-B (KMDQ)
Fri 06:35:22 PM 36.5902 -86.6356 275° West 373 429 38,000  Level FlightAware ADS-B (KMDQ)
Fri 06:35:52 PM 36.5957 -86.7141 275° West 372 428 38,000  Level FlightAware ADS-B (KIXA)
Fri 06:36:24 PM 36.6000 -86.7799 275° West 367 422 38,000  Level FlightAware ADS-B (KIXA)
Fri 06:37:06 PM 36.6054 -86.8685 274° West 366 421 38,000  Level FlightAware ADS-B (KIXA)
Fri 06:37:37 PM 36.6092 -86.9272 275° West 365 420 38,000  Level FlightAware ADS-B (KIXA)
Fri 06:38:21 PM 36.6155 -87.0247 275° West 364 419 38,000  Level FlightAware ADS-B (KIXA)
Fri 06:39:34 PM 36.6244 -87.1594 275° West 366 421 38,000  Level Memphis Center
Fri 06:40:36 PM 36.6311 -87.2842 274° West 365 420 38,000  Level Memphis Center
Fri 06:41:38 PM 36.6389 -87.4089 274° West 364 419 38,000  Level Memphis Center
Fri 06:42:40 PM 36.6472 -87.5544 274° West 363 418 38,000  Level Memphis Center
Fri 06:43:42 PM 36.6547 -87.6806 274° West 363 418 38,000  Level Memphis Center
Fri 06:44:44 PM 36.6614 -87.8058 274° West 362 417 38,000  Level Memphis Center
Fri 06:45:47 PM 36.6686 -87.9311 274° West 362 417 38,000  Level Memphis Center
Fri 06:46:49 PM 36.6747 -88.0586 273° West 363 418 38,000  Level Memphis Center
Fri 06:47:51 PM 36.6844 -88.2028 275° West 363 418 38,000  Level Memphis Center
Fri 06:48:53 PM 36.6889 -88.3275 273° West 363 418 38,000  Level Memphis Center
Fri 06:49:55 PM 36.6953 -88.4539 274° West 363 418 38,000  Level Memphis Center
Fri 06:50:57 PM 36.7036 -88.5811 275° West 366 421 38,000  Level Memphis Center
Fri 06:51:59 PM 36.7083 -88.7067 273° West 366 421 38,000  Level Memphis Center
Fri 06:53:01 PM 36.7144 -88.8328 273° West 366 421 38,000  Level Memphis Center
Fri 06:54:03 PM 36.7219 -88.9828 274° West 366 421 38,000  Level Memphis Center
Fri 06:55:05 PM 36.7281 -89.1089 273° West 366 421 38,000  Level Memphis Center
Fri 06:56:07 PM 36.7333 -89.2347 273° West 366 421 38,000  Level Memphis Center
Fri 06:57:09 PM 36.7394 -89.3611 273° West 366 421 38,000  Level Memphis Center
Fri 06:58:11 PM 36.7442 -89.4883 273° West 367 422 38,000  Level Memphis Center
Fri 06:59:13 PM 36.7508 -89.6422 273° West 369 425 38,000  Level Memphis Center
Fri 07:00:15 PM 36.7556 -89.7694 273° West 369 425 38,000  Level Memphis Center
Fri 07:01:18 PM 36.7600 -89.8939 273° West 368 423 38,000  Level Memphis Center
Fri 07:02:20 PM 36.7650 -90.0192 273° West 367 422 38,000  Level Memphis Center
Fri 07:03:22 PM 36.7692 -90.1431 272° West 363 418 38,000  Level Memphis Center
Fri 07:04:24 PM 36.7747 -90.2917 273° West 362 417 38,000  Level Memphis Center
Fri 07:05:26 PM 36.7792 -90.4136 273° West 358 412 38,000  Level Memphis Center
Fri 07:06:28 PM 36.7825 -90.5378 272° West 358 412 38,000  Level Memphis Center
Fri 07:07:30 PM 36.7856 -90.6617 272° West 358 412 38,000  Level Memphis Center
Fri 07:08:32 PM 36.7908 -90.7819 273° West 356 410 38,000  Level Memphis Center
Fri 07:09:34 PM 36.7942 -90.9044 272° West 354 407 38,000  Level Memphis Center
Fri 07:10:36 PM 36.7983 -91.0503 272° West 353 406 38,000  Level Memphis Center
Fri 07:11:38 PM 36.8017 -91.1647 272° West 353 406 38,000  Level Memphis Center
Fri 07:12:40 PM 36.8039 -91.2892 271° West 353 406 38,000  Level Memphis Center
Fri 07:13:42 PM 36.8086 -91.4144 273° West 356 410 38,000  Level Memphis Center
Fri 07:14:44 PM 36.8117 -91.5400 272° West 356 410 38,000  Level Memphis Center
Fri 07:15:46 PM 36.8156 -91.6900 272° West 357 411 38,000  Level Memphis Center
Fri 07:21:27 PM 36.8303 -92.3949 271° West 354 407 38,000  Level FlightAware ADS-B (EGNC / CAX)
Fri 07:22:08 PM 36.8317 -92.4773 271° West 355 409 38,000  Level FlightAware ADS-B (EGNC / CAX)
Fri 07:22:56 PM 36.8334 -92.5761 271° West 354 407 38,000  Level FlightAware ADS-B (EGNC / CAX)
Fri 07:23:36 PM 36.8345 -92.6450 272° West 354 407 38,000  Level FlightAware ADS-B (EGNC / CAX)
Fri 07:24:12 PM 36.8359 -92.7316 271° West 354 407 38,000  Level FlightAware ADS-B (EGNC / CAX)
Fri 07:24:52 PM 36.8370 -92.8132 271° West 354 407 38,000  Level FlightAware ADS-B (EGNC / CAX)
Fri 07:25:34 PM 36.8382 -92.8979 271° West 355 409 38,000  Level FlightAware ADS-B (EGNC / CAX)
Fri 07:26:14 PM 36.8392 -92.9802 271° West 355 409 38,000  Level FlightAware ADS-B (EGNC / CAX)
Fri 07:26:55 PM 36.8402 -93.0601 271° West 355 409 38,000  Level FlightAware ADS-B (EGNC / CAX)
Fri 07:27:28 PM 36.8408 -93.1142 271° West 355 409 38,000  Level FlightAware ADS-B (EGNC / CAX)
Fri 07:28:15 PM 36.8418 -93.2262 271° West 355 409 38,000  Level FlightAware ADS-B (EGNC / CAX)
Fri 07:28:52 PM 36.8427 -93.2926 271° West 355 409 38,000  Level FlightAware ADS-B (EGNC / CAX)
Fri 07:29:34 PM 36.8437 -93.3801 271° West 355 409 38,000  Level FlightAware ADS-B (EGNC / CAX)
Fri 07:30:13 PM 36.8443 -93.4683 271° West 355 409 38,000  Level FlightAware ADS-B (EGNC / CAX)
Fri 07:30:56 PM 36.8450 -93.5555 271° West 355 409 38,000  Level FlightAware ADS-B (EGNC / CAX)
Fri 07:31:54 PM 36.8459 -93.6738 271° West 354 407 38,000  Level FlightAware ADS-B (EGNC / CAX)
Fri 07:32:25 PM 36.8463 -93.7357 271° West 354 407 38,000  Level FlightAware ADS-B (EGNC / CAX)
Fri 07:33:35 PM 36.8471 -93.8806 270° West 353 406 38,000  Level FlightAware ADS-B (EGNC / CAX)
Fri 07:34:59 PM 36.8478 -94.0507 270° West 352 405 38,000  Level FlightAware ADS-B (EGNC / CAX)
Fri 07:37:03 PM 36.8484 -94.2970 270° West 350 403 38,000  Level FlightAware ADS-B (EGNC / CAX)
Fri 07:38:02 PM 36.8486 -94.3950 270° West 351 404 38,000  Level Kansas City Center
Fri 07:39:03 PM 36.8469 -94.5153 269° West 350 403 38,000  Level Kansas City Center
Fri 07:40:07 PM 36.8464 -94.6597 270° West 350 403 38,000  Level Kansas City Center
Fri 07:41:07 PM 36.8475 -94.7797 271° West 350 403 38,000  Level Kansas City Center
Fri 07:46:37 PM 36.8447 -95.4365 269° West 342 394 38,000  Level FlightAware ADS-B (EGNC / CAX)
Fri 07:47:10 PM 36.8441 -95.5114 269° West 342 394 38,000  Level FlightAware ADS-B (EGNC / CAX)
Fri 07:47:52 PM 36.8434 -95.5948 269° West 343 395 38,000  Level FlightAware ADS-B (EGNC / CAX)
Fri 07:48:41 PM 36.8425 -95.6917 269° West 342 394 38,000  Level FlightAware ADS-B (EGNC / CAX)
Fri 07:49:51 PM 36.8411 -95.8293 269° West 343 395 38,000  Level FlightAware ADS-B (EGNC / CAX)
Fri 07:50:36 PM 36.8401 -95.9039 269° West 342 394 38,000  Level FlightAware ADS-B (EGNC / CAX)
Fri 07:51:17 PM 36.8391 -95.9786 269° West 342 394 38,000  Level FlightAware ADS-B (EGNC / CAX)
Fri 07:53:35 PM 36.8353 -96.2689 269° West 342 394 38,000  Level FlightAware ADS-B (EGNC / CAX)
Fri 07:54:14 PM 36.8340 -96.3468 269° West 341 392 38,000  Level FlightAware ADS-B (EGNC / CAX)
Fri 07:54:57 PM 36.8326 -96.4312 269° West 342 394 38,000  Level FlightAware ADS-B (EGNC / CAX)
Fri 07:55:50 PM 36.8311 -96.5352 269° West 343 395 38,000  Level FlightAware ADS-B (EGNC / CAX)
Fri 07:57:57 PM 36.8263 -96.7859 269° West 342 394 38,000  Level FlightAware ADS-B (EGNC / CAX)
Fri 07:58:37 PM 36.8250 -96.8631 269° West 340 391 38,000  Level FlightAware ADS-B (EGNC / CAX)
Fri 07:59:15 PM 36.8237 -96.9334 269° West 340 391 38,000  Level FlightAware ADS-B (EGNC / CAX)
Fri 07:59:54 PM 36.8221 -97.0051 268° West 339 390 38,000  Level FlightAware ADS-B (EGNC / CAX)
Fri 08:00:30 PM 36.8202 -97.0837 269° West 338 389 38,000  Level FlightAware ADS-B (EGNC / CAX)
Fri 08:01:12 PM 36.8183 -97.1658 269° West 338 389 38,000  Level FlightAware ADS-B (EGNC / CAX)
Fri 08:01:48 PM 36.8167 -97.2371 268° West 339 390 38,000  Level FlightAware ADS-B (EGNC / CAX)
Fri 08:02:30 PM 36.8149 -97.3173 268° West 338 389 38,000  Level FlightAware ADS-B (EGNC / CAX)
Fri 08:03:20 PM 36.8126 -97.4160 268° West 338 389 38,000  Level FlightAware ADS-B (EGNC / CAX)
Fri 08:04:50 PM 36.8089 -97.5761 268° West 339 390 38,000  Level Kansas City Center
Fri 08:05:53 PM 36.8050 -97.6942 268° West 339 390 38,000  Level Kansas City Center
Fri 08:06:54 PM 36.8017 -97.8161 268° West 338 389 38,000  Level Kansas City Center
Fri 08:07:55 PM 36.7986 -97.9328 268° West 338 389 38,000  Level Kansas City Center
Fri 08:08:56 PM 36.7944 -98.0492 267° West 337 388 38,000  Level Kansas City Center
Fri 08:10:00 PM 36.7914 -98.1647 268° West 337 388 38,000  Level Kansas City Center
Fri 08:11:01 PM 36.7869 -98.2806 267° West 337 388 38,000  Level Kansas City Center
Fri 08:12:02 PM 36.7833 -98.3978 268° West 337 388 38,000  Level Kansas City Center
Fri 08:13:04 PM 36.7792 -98.5386 268° West 337 388 38,000  Level Kansas City Center
Fri 08:14:04 PM 36.7753 -98.6575 268° West 340 391 38,000  Level Kansas City Center
Fri 08:15:08 PM 36.7711 -98.7753 268° West 340 391 38,000  Level Kansas City Center
Fri 08:16:08 PM 36.7667 -98.8933 267° West 340 391 38,000  Level Kansas City Center
Fri 08:17:11 PM 36.7625 -99.0125 268° West 342 394 38,000  Level Kansas City Center
Fri 08:18:13 PM 36.7581 -99.1294 267° West 342 394 38,000  Level Kansas City Center
Fri 08:19:14 PM 36.7536 -99.2475 267° West 342 394 38,000  Level Kansas City Center
Fri 08:20:15 PM 36.7475 -99.3869 267° West 341 392 38,000  Level Kansas City Center
Fri 08:21:16 PM 36.7431 -99.5033 267° West 340 391 38,000  Level Kansas City Center
Fri 08:22:18 PM 36.7381 -99.6200 267° West 340 391 38,000  Level Kansas City Center
Fri 08:23:21 PM 36.7333 -99.7347 267° West 337 388 38,000  Level Kansas City Center
Fri 08:24:22 PM 36.7272 -99.8511 266° West 337 388 38,000  Level Kansas City Center
Fri 08:25:23 PM 36.7219 -99.9700 267° West 338 389 38,000  Level Kansas City Center
Fri 08:26:26 PM 36.7172 -100.0858 267° West 338 389 38,000  Level Kansas City Center
Fri 08:27:27 PM 36.7100 -100.2267 266° West 338 389 38,000  Level Kansas City Center
Fri 08:28:28 PM 36.7039 -100.3444 266° West 340 391 38,000  Level Kansas City Center
Fri 08:29:30 PM 36.6983 -100.4522 266° West 340 391 38,000  Level Kansas City Center
Fri 08:30:30 PM 36.6928 -100.5850 267° West 340 391 38,000  Level Kansas City Center
Fri 08:31:31 PM 36.6869 -100.6967 266° West 340 391 38,000  Level Kansas City Center
Fri 08:32:35 PM 36.6794 -100.8294 266° West 340 391 38,000  Level Kansas City Center
Fri 08:33:35 PM 36.6725 -100.9431 266° West 341 392 38,000  Level Kansas City Center
Fri 08:34:37 PM 36.6664 -101.0561 266° West 341 392 38,000  Level Kansas City Center
Fri 08:35:37 PM 36.6594 -101.1900 266° West 341 392 38,000  Level Kansas City Center
Fri 08:36:41 PM 36.6528 -101.3050 266° West 344 396 38,000  Level Kansas City Center
Fri 08:37:41 PM 36.6447 -101.4381 266° West 344 396 38,000  Level Kansas City Center
Fri 08:38:41 PM 36.6381 -101.5522 266° West 344 396 38,000  Level Kansas City Center
Fri 08:39:45 PM 36.6317 -101.6667 266° West 344 396 38,000  Level Kansas City Center
Fri 08:40:46 PM 36.6244 -101.7908 266° West 345 397 38,000  Level Kansas City Center
Fri 08:41:17 PM 36.6203 -101.8583 266° West 346 398 38,000  Level Albuquerque Center
Fri 08:42:18 PM 36.6125 -101.9889 266° West 346 398 38,000  Level Albuquerque Center
Fri 08:43:20 PM 36.6050 -102.1028 265° West 345 397 38,000  Level Albuquerque Center
Fri 08:44:21 PM 36.5972 -102.2136 265° West 344 396 38,000  Level Albuquerque Center
Fri 08:45:22 PM 36.5900 -102.3306 266° West 343 395 38,000  Level Albuquerque Center
Fri 08:46:24 PM 36.5811 -102.4697 265° West 341 392 38,000  Level Albuquerque Center
Fri 08:47:25 PM 36.5733 -102.5853 265° West 341 392 38,000  Level Albuquerque Center
Fri 08:48:27 PM 36.5653 -102.7036 265° West 341 392 38,000  Level Albuquerque Center
Fri 08:49:28 PM 36.5564 -102.8206 265° West 341 392 38,000  Level Albuquerque Center
Fri 08:50:30 PM 36.5494 -102.9450 266° West 341 392 38,000  Level Albuquerque Center
Fri 08:51:31 PM 36.5408 -103.0636 265° West 342 394 38,000  Level Albuquerque Center
Fri 08:52:32 PM 36.5311 -103.1825 264° West 342 394 38,000  Level Albuquerque Center
Fri 08:53:34 PM 36.5233 -103.3017 265° West 342 394 38,000  Level Albuquerque Center
Fri 08:54:35 PM 36.5142 -103.4211 265° West 342 394 38,000  Level Albuquerque Center
Fri 08:55:36 PM 36.5047 -103.5419 264° West 346 398 38,000  Level Albuquerque Center
Fri 08:56:38 PM 36.4956 -103.6639 265° West 350 403 38,000  Level Albuquerque Center
Fri 08:57:39 PM 36.4858 -103.7847 264° West 350 403 38,000  Level Albuquerque Center
Fri 08:58:41 PM 36.4767 -103.9050 265° West 350 403 38,000  Level Albuquerque Center
Fri 08:59:42 PM 36.4653 -104.0442 264° West 349 402 38,000  Level Albuquerque Center
Fri 09:00:43 PM 36.4556 -104.1633 264° West 349 402 38,000  Level Albuquerque Center
Fri 09:01:45 PM 36.4456 -104.2817 264° West 348 400 38,000  Level Albuquerque Center
Fri 09:02:46 PM 36.4353 -104.4008 264° West 348 400 38,000  Level Albuquerque Center
Fri 09:03:47 PM 36.4258 -104.5208 264° West 347 399 38,000  Level Albuquerque Center
Fri 09:04:49 PM 36.4158 -104.6411 264° West 348 400 38,000  Level Albuquerque Center
Fri 09:10:21 PM 36.3563 -105.3045 263° West 341 392 38,000  Level FlightAware ADS-B
Fri 09:11:22 PM 36.3457 -105.4213 264° West 345 397 38,000  Level FlightAware ADS-B
Fri 09:12:24 PM 36.3341 -105.5453 263° West 345 397 38,000  Level FlightAware ADS-B
Fri 09:13:27 PM 36.3224 -105.6695 263° West 347 399 38,000  Level FlightAware ADS-B
Fri 09:14:30 PM 36.3109 -105.7926 263° West 349 402 38,000  Level FlightAware ADS-B
Fri 09:15:35 PM 36.2988 -105.9176 263° West 352 405 38,000  Level FlightAware ADS-B
Fri 09:17:37 PM 36.2745 -106.1667 263° West 358 412 38,000  Level FlightAware ADS-B
Fri 09:18:41 PM 36.2615 -106.2981 263° West 353 406 38,000  Level FlightAware ADS-B
Fri 09:20:47 PM 36.2358 -106.5506 263° West 354 407 38,000  Level FlightAware ADS-B
Fri 09:21:49 PM 36.2232 -106.6764 263° West 361 415 38,000  Level FlightAware ADS-B
Fri 09:22:56 PM 36.2101 -106.8022 263° West 360 414 38,000  Level FlightAware ADS-B
Fri 09:23:57 PM 36.1959 -106.9373 263° West 362 417 38,000  Level FlightAware ADS-B
Fri 09:24:55 PM 36.1835 -107.0552 263° West 359 413 38,000  Level FlightAware ADS-B
Fri 09:26:03 PM 36.1694 -107.1876 262° West 359 413 38,000  Level FlightAware ADS-B
Fri 09:27:05 PM 36.1550 -107.3191 263° West 359 413 38,000  Level FlightAware ADS-B
Fri 09:28:08 PM 36.1409 -107.4487 262° West 360 414 38,000  Level FlightAware ADS-B
Fri 09:29:10 PM 36.1270 -107.5750 262° West 361 415 38,000  Level FlightAware ADS-B
Fri 09:30:12 PM 36.1129 -107.7018 262° West 364 419 38,000  Level FlightAware ADS-B
Fri 09:32:17 PM 36.0842 -107.9584 262° West 363 418 38,000  Level FlightAware ADS-B
Fri 09:33:23 PM 36.0685 -108.0928 262° West 363 418 38,000  Level FlightAware ADS-B
Fri 09:35:26 PM 36.0397 -108.3412 262° West 362 417 38,000  Level FlightAware ADS-B
Fri 09:36:28 PM 36.0243 -108.4705 262° West 361 415 38,000  Level FlightAware ADS-B
Fri 09:37:30 PM 36.0092 -108.5971 262° West 362 417 38,000  Level FlightAware ADS-B
Fri 09:38:31 PM 35.9945 -108.7213 261° West 362 417 38,000  Level FlightAware ADS-B
Fri 09:39:36 PM 35.9783 -108.8537 262° West 368 423 38,000  Level FlightAware ADS-B
Fri 09:41:42 PM 35.9464 -109.1131 261° West 369 425 38,000  Level FlightAware ADS-B
Fri 09:43:52 PM 35.9124 -109.3849 261° West 368 423 38,000  Level FlightAware ADS-B
Fri 09:44:53 PM 35.8965 -109.5104 261° West 367 422 38,000  Level FlightAware ADS-B
Fri 09:48:04 PM 35.8456 -109.9043 261° West 365 420 38,000  Level FlightAware ADS-B
Fri 09:49:00 PM 35.8359 -109.9779 261° West 367 422 38,000  Level FlightAware ADS-B
Fri 09:50:06 PM 35.8125 -110.1550 261° West 366 421 38,000  Level FlightAware ADS-B
Fri 09:51:49 PM 35.7843 -110.3649 261° West 369 425 38,000  Level FlightAware ADS-B
Fri 09:52:44 PM 35.7685 -110.4815 261° West 371 427 38,000  Level FlightAware ADS-B
Fri 09:55:04 PM 35.7443 -110.6594 261° West 374 430 38,000  Level FlightAware ADS-B
Fri 09:56:15 PM 35.7157 -110.8647 260° West 371 427 38,000  Level FlightAware ADS-B
Fri 10:00:22 PM 35.6378 -111.4151 260° West 379 436 38,000  Level FlightAware ADS-B
Fri 10:02:03 PM 35.6038 -111.6485 260° West 386 444 38,000  Level FlightAware ADS-B
Fri 10:07:54 PM 35.5239 -112.1864 259° West 395 455 38,000  Level FlightAware ADS-B
Fri 10:09:02 PM 35.4964 -112.3685 259° West 397 457 38,000  Level FlightAware ADS-B
Fri 10:10:23 PM 35.4378 -112.7472 259° West 397 457 38,000  Level FlightAware ADS-B
Fri 10:10:56 PM 35.4266 -112.8198 259° West 397 457 38,000  Level FlightAware ADS-B
Fri 10:12:34 PM 35.3926 -113.0360 259° West 397 457 38,000  Level FlightAware ADS-B
Fri 10:13:18 PM 35.3811 -113.1083 259° West 388 447 38,000  Level Los Angeles Center
Fri 10:14:19 PM 35.3597 -113.2408 259° West 391 450 38,000  Level Los Angeles Center
Fri 10:15:21 PM 35.3383 -113.3711 259° West 396 456 38,000  Level Los Angeles Center
Fri 10:17:29 PM 35.2778 -113.6603 256° West 401 461 38,000  Level Albuquerque Center
Fri 10:18:26 PM 35.2356 -113.7869 248° West 404 465 38,000  Level Los Angeles Center
Fri 10:19:28 PM 35.1944 -113.9156 249° West 405 466 38,000  Level Los Angeles Center
Fri 10:20:30 PM 35.1517 -114.0508 249° West 405 466 38,000  Level Los Angeles Center
Fri 10:21:31 PM 35.1092 -114.1800 248° West 406 467 38,000  Level Los Angeles Center
Fri 10:22:33 PM 35.0672 -114.3086 248° West 407 468 38,000  Level Los Angeles Center
Fri 10:23:35 PM 35.0247 -114.4389 248° West 408 470 38,000  Level Los Angeles Center
Fri 10:24:36 PM 34.9736 -114.5947 248° West 410 472 38,000  Level Los Angeles Center
Fri 10:25:38 PM 34.9300 -114.7242 248° West 410 472 38,000  Level Los Angeles Center
Fri 10:31:18 PM 34.6840 -115.4579 248° West 400 460 38,000 -119 Level FlightAware ADS-B
Fri 10:34:04 PM 34.5686 -115.7967 249° West 394 453 37,000 -450 Descending FlightAware ADS-B (KBNG)
Fri 10:34:38 PM 34.5442 -115.8682 248° West 406 467 36,500 -1,352 Descending FlightAware ADS-B
Fri 10:35:15 PM 34.5169 -115.9475 247° West 413 475 35,400 -1,714 Descending FlightAware ADS-B
Fri 10:36:09 PM 34.4789 -116.0568 247° West 413 475 33,900 -1,938 Descending FlightAware ADS-B
Fri 10:36:51 PM 34.4510 -116.1370 247° West 415 478 32,300 -1,865 Descending FlightAware ADS-B (KBNG)
Fri 10:37:23 PM 34.4226 -116.2191 247° West 420 483 31,600 -1,800 Descending FlightAware ADS-B (KBNG)
Fri 10:38:11 PM 34.3865 -116.3225 247° West 411 473 29,900 -2,051 Descending FlightAware ADS-B (KBNG)
Fri 10:38:42 PM 34.3624 -116.3881 243° Southwest 403 464 28,900 -2,000 Descending FlightAware ADS-B (KBNG)
Fri 10:39:29 PM 34.3137 -116.4727 233° Southwest 390 449 27,300 -2,000 Descending FlightAware ADS-B (KBNG)
Fri 10:40:09 PM 34.2706 -116.5429 234° Southwest 387 445 26,000 -1,859 Descending FlightAware ADS-B (KBNG)
Fri 10:40:40 PM 34.2388 -116.5961 237° Southwest 381 438 25,100 -1,759 Descending FlightAware ADS-B
Fri 10:41:07 PM 34.2203 -116.6399 250° West 381 438 24,300 -2,471 Descending FlightAware ADS-B (KBNG)
Fri 10:41:14 PM 34.2138 -116.6625 254° West 377 434 23,700 -1,737 Descending FlightAware ADS-B (KBNG)
Fri 10:41:45 PM 34.1992 -116.7247 254° West 373 429 23,200 -1,364 Descending FlightAware ADS-B
Fri 10:42:20 PM 34.1834 -116.7927 254° West 361 415 22,200 -1,727 Descending FlightAware ADS-B (KBNG)
Fri 10:42:51 PM 34.1691 -116.8531 254° West 359 413 21,300 -1,548 Descending FlightAware ADS-B (KBNG)
Fri 10:43:22 PM 34.1551 -116.9130 254° West 352 405 20,600 -1,082 Descending FlightAware ADS-B (KBNG)
Fri 10:43:52 PM 34.1423 -116.9676 255° West 330 380 20,200 -1,180 Descending FlightAware ADS-B
Fri 10:44:23 PM 34.1303 -117.0197 254° West 313 360 19,400 -1,957 Descending FlightAware ADS-B (KBNG)
Fri 10:44:38 PM 34.1263 -117.0361 254° West 310 357 18,700 -1,592 Descending FlightAware ADS-B (KBNG)
Fri 10:45:12 PM 34.1103 -117.0985 250° West 307 353 18,100 -977 Descending FlightAware ADS-B
Fri 10:45:21 PM 34.1059 -117.1121 230° Southwest 304 350 18,000 -154 Descending FlightAware ADS-B (KBNG)
Fri 10:45:51 PM 34.0759 -117.1459 203° Southwest 307 353 18,000 -800 Level FlightAware ADS-B (KBNG)
Fri 10:46:21 PM 34.0335 -117.1652 200° South 311 358 17,200 -1,800 Descending FlightAware ADS-B (KBNG)
Fri 10:46:41 PM 34.0062 -117.1775 210° Southwest 312 359 16,500 -2,000 Descending FlightAware ADS-B (KBNG)
Fri 10:46:51 PM 34.0005 -117.1813 224° Southwest 306 352 16,200 -1,909 Descending FlightAware ADS-B
Fri 10:47:03 PM 33.9846 -117.2011 237° Southwest 303 349 15,800 -1,286 Descending FlightAware ADS-B (KBNG)
Fri 10:47:33 PM 33.9774 -117.2511 275° West 293 337 15,300 -1,130 Descending FlightAware ADS-B
Fri 10:48:12 PM 33.9816 -117.3140 275° West 289 333 14,500 -892 Descending FlightAware ADS-B
Fri 10:48:47 PM 33.9848 -117.3625 274° West 285 328 14,200 -1,116 Descending FlightAware ADS-B
Fri 10:49:38 PM 33.9903 -117.4485 275° West 282 325 12,900 -1,355 Descending FlightAware ADS-B
Fri 10:50:20 PM 33.9945 -117.5134 274° West 277 319 12,100 -1,116 Descending FlightAware ADS-B
Fri 10:51:47 PM 34.0031 -117.6469 274° West 276 318 10,500 -1,122 Descending FlightAware ADS-B
Fri 10:52:23 PM 34.0049 -117.7032 265° West 273 314 9,800 -1,275 Descending FlightAware ADS-B
Fri 10:53:07 PM 33.9984 -117.7699 264° West 272 313 8,800 -1,313 Descending FlightAware ADS-B
Fri 10:53:27 PM 33.9956 -117.7996 263° West 272 313 8,400 -1,200 Descending FlightAware ADS-B
Fri 10:53:52 PM 33.9918 -117.8372 263° West 270 311 7,900 -1,377 Descending FlightAware ADS-B
Fri 10:54:28 PM 33.9866 -117.8897 264° West 265 305 7,000 -1,258 Descending FlightAware ADS-B
Fri 10:54:54 PM 33.9830 -117.9279 263° West 258 297 6,600 -857 Descending FlightAware ADS-B
Fri 10:55:31 PM 33.9779 -117.9785 263° West 239 275 6,100 -900 Descending FlightAware ADS-B
Fri 10:55:54 PM 33.9748 -118.0087 263° West 230 265 5,700 -885 Descending FlightAware ADS-B
Fri 10:56:32 PM 33.9705 -118.0547 264° West 219 252 5,200 -844 Descending FlightAware ADS-B
Fri 10:56:58 PM 33.9672 -118.0869 263° West 220 253 4,800 -913 Descending FlightAware ADS-B
Fri 10:57:18 PM 33.9648 -118.1105 264° West 219 252 4,500 -1,024 Descending FlightAware ADS-B
Fri 10:57:39 PM 33.9625 -118.1357 264° West 212 244 4,100 -1,200 Descending FlightAware ADS-B
Fri 10:57:58 PM 33.9604 -118.1550 262° West 205 236 3,700 -1,180 Descending FlightAware ADS-B
Fri 10:58:40 PM 33.9556 -118.2037 263° West 187 215 2,900 -951 Descending FlightAware ADS-B
Fri 10:59:20 PM 33.9516 -118.2422 263° West 172 198 2,400 -915 Descending FlightAware ADS-B
Fri 10:59:39 PM 33.9497 -118.2603 263° West 168 193 2,000 -900 Descending FlightAware ADS-B
Fri 11:00:00 PM 33.9479 -118.2787 263° West 161 185 1,800 -732 Descending FlightAware ADS-B
Fri 11:00:20 PM 33.9461 -118.2962 263° West 143 165 1,500 -750 Descending FlightAware ADS-B
Fri 11:00:40 PM 33.9446 -118.3116 263° West 137 158 1,300 -800 Descending FlightAware ADS-B
Fri 11:01:20 PM 33.9416 -118.3406 263° West 130 150 700 -900 Descending FlightAware ADS-B

Login

Don't have an account? Register now (free) for customized features, flight alerts, and more!